sensor_id;sensor_type;location;lat;lon;timestamp;pressure;altitude;pressure_sealevel;temperature
20092;BMP180;10205;49.678;6.560;2023-04-16T00:02:07;100182.00;;;16.20
20092;BMP180;10205;49.678;6.560;2023-04-16T00:04:34;100178.00;;;16.20
20092;BMP180;10205;49.678;6.560;2023-04-16T00:07:01;100181.00;;;16.10
20092;BMP180;10205;49.678;6.560;2023-04-16T00:09:28;100172.00;;;16.10
20092;BMP180;10205;49.678;6.560;2023-04-16T00:11:56;100172.00;;;16.10
20092;BMP180;10205;49.678;6.560;2023-04-16T00:14:23;100159.00;;;16.00
20092;BMP180;10205;49.678;6.560;2023-04-16T00:16:51;100169.00;;;16.00
20092;BMP180;10205;49.678;6.560;2023-04-16T00:19:18;100175.00;;;16.00
20092;BMP180;10205;49.678;6.560;2023-04-16T00:21:48;100170.00;;;16.00
20092;BMP180;10205;49.678;6.560;2023-04-16T00:24:16;100169.00;;;16.00
20092;BMP180;10205;49.678;6.560;2023-04-16T00:26:43;100174.00;;;15.90
20092;BMP180;10205;49.678;6.560;2023-04-16T00:29:11;100167.00;;;15.90
20092;BMP180;10205;49.678;6.560;2023-04-16T00:31:38;100173.00;;;15.90
20092;BMP180;10205;49.678;6.560;2023-04-16T00:34:07;100174.00;;;15.90
20092;BMP180;10205;49.678;6.560;2023-04-16T00:36:34;100180.00;;;15.80
20092;BMP180;10205;49.678;6.560;2023-04-16T00:39:01;100181.00;;;15.80
20092;BMP180;10205;49.678;6.560;2023-04-16T00:41:28;100183.00;;;15.80
20092;BMP180;10205;49.678;6.560;2023-04-16T00:43:56;100184.00;;;15.70
20092;BMP180;10205;49.678;6.560;2023-04-16T00:46:24;100172.00;;;15.70
20092;BMP180;10205;49.678;6.560;2023-04-16T00:48:58;100168.00;;;15.70
20092;BMP180;10205;49.678;6.560;2023-04-16T00:51:28;100181.00;;;15.70
20092;BMP180;10205;49.678;6.560;2023-04-16T00:53:56;100184.00;;;15.60
20092;BMP180;10205;49.678;6.560;2023-04-16T00:56:24;100184.00;;;15.60
20092;BMP180;10205;49.678;6.560;2023-04-16T00:58:53;100188.00;;;15.60
20092;BMP180;10205;49.678;6.560;2023-04-16T01:01:21;100195.00;;;15.60
20092;BMP180;10205;49.678;6.560;2023-04-16T01:03:48;100195.00;;;15.60
20092;BMP180;10205;49.678;6.560;2023-04-16T01:06:17;100198.00;;;15.60
20092;BMP180;10205;49.678;6.560;2023-04-16T01:08:46;100194.00;;;15.50
20092;BMP180;10205;49.678;6.560;2023-04-16T01:11:14;100200.00;;;15.60
20092;BMP180;10205;49.678;6.560;2023-04-16T01:13:41;100197.00;;;15.50
20092;BMP180;10205;49.678;6.560;2023-04-16T01:16:11;100204.00;;;15.50
20092;BMP180;10205;49.678;6.560;2023-04-16T01:18:38;100182.00;;;15.50
20092;BMP180;10205;49.678;6.560;2023-04-16T01:21:07;100200.00;;;15.50
20092;BMP180;10205;49.678;6.560;2023-04-16T01:23:34;100200.00;;;15.50
20092;BMP180;10205;49.678;6.560;2023-04-16T01:26:01;100201.00;;;15.50
20092;BMP180;10205;49.678;6.560;2023-04-16T01:28:28;100201.00;;;15.40
20092;BMP180;10205;49.678;6.560;2023-04-16T01:30:55;100206.00;;;15.40
20092;BMP180;10205;49.678;6.560;2023-04-16T01:33:23;100207.00;;;15.40
20092;BMP180;10205;49.678;6.560;2023-04-16T01:35:50;100208.00;;;15.40
20092;BMP180;10205;49.678;6.560;2023-04-16T01:38:19;100199.00;;;15.40
20092;BMP180;10205;49.678;6.560;2023-04-16T01:40:46;100200.00;;;15.40
20092;BMP180;10205;49.678;6.560;2023-04-16T01:43:14;100202.00;;;15.40
20092;BMP180;10205;49.678;6.560;2023-04-16T01:45:41;100209.00;;;15.40
20092;BMP180;10205;49.678;6.560;2023-04-16T01:48:08;100204.00;;;15.40
20092;BMP180;10205;49.678;6.560;2023-04-16T01:50:36;100215.00;;;15.30
20092;BMP180;10205;49.678;6.560;2023-04-16T01:53:03;100201.00;;;15.30
20092;BMP180;10205;49.678;6.560;2023-04-16T01:55:32;100212.00;;;15.30
20092;BMP180;10205;49.678;6.560;2023-04-16T01:58:00;100210.00;;;15.30
20092;BMP180;10205;49.678;6.560;2023-04-16T02:00:27;100211.00;;;15.30
20092;BMP180;10205;49.678;6.560;2023-04-16T02:02:54;100186.00;;;15.30
20092;BMP180;10205;49.678;6.560;2023-04-16T02:05:21;100209.00;;;15.30
20092;BMP180;10205;49.678;6.560;2023-04-16T02:07:49;100213.00;;;15.30
20092;BMP180;10205;49.678;6.560;2023-04-16T02:10:16;100215.00;;;15.30
20092;BMP180;10205;49.678;6.560;2023-04-16T02:12:44;100218.00;;;15.20
20092;BMP180;10205;49.678;6.560;2023-04-16T02:15:12;100210.00;;;15.20
20092;BMP180;10205;49.678;6.560;2023-04-16T02:17:40;100206.00;;;15.20
20092;BMP180;10205;49.678;6.560;2023-04-16T02:20:09;100207.00;;;15.20
20092;BMP180;10205;49.678;6.560;2023-04-16T02:22:36;100206.00;;;15.20
20092;BMP180;10205;49.678;6.560;2023-04-16T02:25:04;100206.00;;;15.10
20092;BMP180;10205;49.678;6.560;2023-04-16T02:27:31;100215.00;;;15.10
20092;BMP180;10205;49.678;6.560;2023-04-16T02:30:00;100209.00;;;15.10
20092;BMP180;10205;49.678;6.560;2023-04-16T02:32:29;100212.00;;;15.00
20092;BMP180;10205;49.678;6.560;2023-04-16T02:34:56;100211.00;;;15.00
20092;BMP180;10205;49.678;6.560;2023-04-16T02:37:23;100214.00;;;15.00
20092;BMP180;10205;49.678;6.560;2023-04-16T02:39:50;100210.00;;;15.00
20092;BMP180;10205;49.678;6.560;2023-04-16T02:42:18;100208.00;;;14.90
20092;BMP180;10205;49.678;6.560;2023-04-16T02:44:45;100209.00;;;14.90
20092;BMP180;10205;49.678;6.560;2023-04-16T02:47:13;100205.00;;;14.90
20092;BMP180;10205;49.678;6.560;2023-04-16T02:49:40;100210.00;;;14.80
20092;BMP180;10205;49.678;6.560;2023-04-16T02:52:08;100211.00;;;14.80
20092;BMP180;10205;49.678;6.560;2023-04-16T02:54:35;100213.00;;;14.80
20092;BMP180;10205;49.678;6.560;2023-04-16T02:57:02;100198.00;;;14.80
20092;BMP180;10205;49.678;6.560;2023-04-16T02:59:30;100213.00;;;14.80
20092;BMP180;10205;49.678;6.560;2023-04-16T03:01:58;100211.00;;;14.80
20092;BMP180;10205;49.678;6.560;2023-04-16T03:04:26;100229.00;;;14.80
20092;BMP180;10205;49.678;6.560;2023-04-16T03:06:53;100199.00;;;14.80
20092;BMP180;10205;49.678;6.560;2023-04-16T03:09:20;100211.00;;;14.70
20092;BMP180;10205;49.678;6.560;2023-04-16T03:11:48;100216.00;;;14.70
20092;BMP180;10205;49.678;6.560;2023-04-16T03:14:15;100218.00;;;14.70
20092;BMP180;10205;49.678;6.560;2023-04-16T03:16:42;100228.00;;;14.70
20092;BMP180;10205;49.678;6.560;2023-04-16T03:19:09;100221.00;;;14.70
20092;BMP180;10205;49.678;6.560;2023-04-16T03:21:42;100227.00;;;14.70
20092;BMP180;10205;49.678;6.560;2023-04-16T03:24:09;100229.00;;;14.60
20092;BMP180;10205;49.678;6.560;2023-04-16T03:26:36;100218.00;;;14.60
20092;BMP180;10205;49.678;6.560;2023-04-16T03:29:03;100223.00;;;14.60
20092;BMP180;10205;49.678;6.560;2023-04-16T03:31:30;100236.00;;;14.60
20092;BMP180;10205;49.678;6.560;2023-04-16T03:33:57;100231.00;;;14.60
20092;BMP180;10205;49.678;6.560;2023-04-16T03:36:25;100247.00;;;14.60
20092;BMP180;10205;49.678;6.560;2023-04-16T03:38:53;100232.00;;;14.60
20092;BMP180;10205;49.678;6.560;2023-04-16T03:41:21;100233.00;;;14.50
20092;BMP180;10205;49.678;6.560;2023-04-16T03:43:48;100233.00;;;14.50
20092;BMP180;10205;49.678;6.560;2023-04-16T03:46:15;100237.00;;;14.50
20092;BMP180;10205;49.678;6.560;2023-04-16T03:48:42;100234.00;;;14.50
20092;BMP180;10205;49.678;6.560;2023-04-16T03:51:09;100243.00;;;14.50
20092;BMP180;10205;49.678;6.560;2023-04-16T03:53:36;100249.00;;;14.50
20092;BMP180;10205;49.678;6.560;2023-04-16T03:56:08;100231.00;;;14.50
20092;BMP180;10205;49.678;6.560;2023-04-16T03:58:35;100234.00;;;14.50
20092;BMP180;10205;49.678;6.560;2023-04-16T04:01:02;100232.00;;;14.50
20092;BMP180;10205;49.678;6.560;2023-04-16T04:03:30;100234.00;;;14.50
20092;BMP180;10205;49.678;6.560;2023-04-16T04:05:57;100238.00;;;14.50
20092;BMP180;10205;49.678;6.560;2023-04-16T04:08:24;100245.00;;;14.50
20092;BMP180;10205;49.678;6.560;2023-04-16T04:10:52;100252.00;;;14.50
20092;BMP180;10205;49.678;6.560;2023-04-16T04:13:20;100247.00;;;14.50
20092;BMP180;10205;49.678;6.560;2023-04-16T04:15:47;100244.00;;;14.50
20092;BMP180;10205;49.678;6.560;2023-04-16T04:18:14;100247.00;;;14.50
20092;BMP180;10205;49.678;6.560;2023-04-16T04:20:43;100229.00;;;14.40
20092;BMP180;10205;49.678;6.560;2023-04-16T04:23:10;100262.00;;;14.50
20092;BMP180;10205;49.678;6.560;2023-04-16T04:25:37;100253.00;;;14.50
20092;BMP180;10205;49.678;6.560;2023-04-16T04:28:05;100252.00;;;14.40
20092;BMP180;10205;49.678;6.560;2023-04-16T04:30:33;100247.00;;;14.40
20092;BMP180;10205;49.678;6.560;2023-04-16T04:33:00;100256.00;;;14.40
20092;BMP180;10205;49.678;6.560;2023-04-16T04:35:28;100264.00;;;14.40
20092;BMP180;10205;49.678;6.560;2023-04-16T04:37:55;100264.00;;;14.40
20092;BMP180;10205;49.678;6.560;2023-04-16T04:40:22;100269.00;;;14.40
20092;BMP180;10205;49.678;6.560;2023-04-16T04:42:49;100262.00;;;14.40
20092;BMP180;10205;49.678;6.560;2023-04-16T04:45:17;100270.00;;;14.40
20092;BMP180;10205;49.678;6.560;2023-04-16T04:47:45;100271.00;;;14.40
20092;BMP180;10205;49.678;6.560;2023-04-16T04:50:12;100269.00;;;14.40
20092;BMP180;10205;49.678;6.560;2023-04-16T04:52:39;100275.00;;;14.40
20092;BMP180;10205;49.678;6.560;2023-04-16T04:55:07;100274.00;;;14.40
20092;BMP180;10205;49.678;6.560;2023-04-16T04:57:34;100267.00;;;14.40
20092;BMP180;10205;49.678;6.560;2023-04-16T05:00:02;100275.00;;;14.40
20092;BMP180;10205;49.678;6.560;2023-04-16T05:02:29;100276.00;;;14.40
20092;BMP180;10205;49.678;6.560;2023-04-16T05:04:58;100288.00;;;14.40
20092;BMP180;10205;49.678;6.560;2023-04-16T05:07:25;100287.00;;;14.30
20092;BMP180;10205;49.678;6.560;2023-04-16T05:09:52;100284.00;;;14.40
20092;BMP180;10205;49.678;6.560;2023-04-16T05:12:19;100286.00;;;14.30
20092;BMP180;10205;49.678;6.560;2023-04-16T05:14:46;100290.00;;;14.30
20092;BMP180;10205;49.678;6.560;2023-04-16T05:17:14;100297.00;;;14.40
20092;BMP180;10205;49.678;6.560;2023-04-16T05:19:41;100278.00;;;14.40
20092;BMP180;10205;49.678;6.560;2023-04-16T05:22:09;100300.00;;;14.30
20092;BMP180;10205;49.678;6.560;2023-04-16T05:24:37;100302.00;;;14.30
20092;BMP180;10205;49.678;6.560;2023-04-16T05:27:05;100312.00;;;14.30
20092;BMP180;10205;49.678;6.560;2023-04-16T05:29:32;100311.00;;;14.30
20092;BMP180;10205;49.678;6.560;2023-04-16T05:32:02;100313.00;;;14.30
20092;BMP180;10205;49.678;6.560;2023-04-16T05:34:29;100306.00;;;14.30
20092;BMP180;10205;49.678;6.560;2023-04-16T05:36:56;100292.00;;;14.30
20092;BMP180;10205;49.678;6.560;2023-04-16T05:39:25;100306.00;;;14.30
20092;BMP180;10205;49.678;6.560;2023-04-16T05:41:52;100316.00;;;14.40
20092;BMP180;10205;49.678;6.560;2023-04-16T05:44:19;100314.00;;;14.40
20092;BMP180;10205;49.678;6.560;2023-04-16T05:46:46;100324.00;;;14.40
20092;BMP180;10205;49.678;6.560;2023-04-16T05:49:15;100315.00;;;14.30
20092;BMP180;10205;49.678;6.560;2023-04-16T05:51:43;100319.00;;;14.30
20092;BMP180;10205;49.678;6.560;2023-04-16T05:54:10;100318.00;;;14.30
20092;BMP180;10205;49.678;6.560;2023-04-16T05:56:39;100319.00;;;14.30
20092;BMP180;10205;49.678;6.560;2023-04-16T05:59:06;100337.00;;;14.30
20092;BMP180;10205;49.678;6.560;2023-04-16T06:01:33;100324.00;;;14.30
20092;BMP180;10205;49.678;6.560;2023-04-16T06:04:01;100335.00;;;14.30
20092;BMP180;10205;49.678;6.560;2023-04-16T06:06:28;100321.00;;;14.20
20092;BMP180;10205;49.678;6.560;2023-04-16T06:08:55;100320.00;;;14.30
20092;BMP180;10205;49.678;6.560;2023-04-16T06:11:24;100331.00;;;14.20
20092;BMP180;10205;49.678;6.560;2023-04-16T06:13:53;100335.00;;;14.20
20092;BMP180;10205;49.678;6.560;2023-04-16T06:16:20;100326.00;;;14.20
20092;BMP180;10205;49.678;6.560;2023-04-16T06:18:48;100349.00;;;14.20
20092;BMP180;10205;49.678;6.560;2023-04-16T06:21:20;100345.00;;;14.20
20092;BMP180;10205;49.678;6.560;2023-04-16T06:23:48;100339.00;;;14.20
20092;BMP180;10205;49.678;6.560;2023-04-16T06:26:15;100344.00;;;14.20
20092;BMP180;10205;49.678;6.560;2023-04-16T06:28:42;100342.00;;;14.20
20092;BMP180;10205;49.678;6.560;2023-04-16T06:31:11;100346.00;;;14.20
20092;BMP180;10205;49.678;6.560;2023-04-16T06:33:38;100352.00;;;14.20
20092;BMP180;10205;49.678;6.560;2023-04-16T06:36:06;100361.00;;;14.20
20092;BMP180;10205;49.678;6.560;2023-04-16T06:38:35;100355.00;;;14.10
20092;BMP180;10205;49.678;6.560;2023-04-16T06:41:03;100348.00;;;14.10
20092;BMP180;10205;49.678;6.560;2023-04-16T06:43:30;100355.00;;;14.10
20092;BMP180;10205;49.678;6.560;2023-04-16T06:45:58;100361.00;;;14.10
20092;BMP180;10205;49.678;6.560;2023-04-16T06:48:27;100363.00;;;14.10
20092;BMP180;10205;49.678;6.560;2023-04-16T06:50:54;100368.00;;;14.10
20092;BMP180;10205;49.678;6.560;2023-04-16T06:53:22;100363.00;;;14.10
20092;BMP180;10205;49.678;6.560;2023-04-16T06:55:49;100361.00;;;14.10
20092;BMP180;10205;49.678;6.560;2023-04-16T06:58:16;100371.00;;;14.00
20092;BMP180;10205;49.678;6.560;2023-04-16T07:00:44;100379.00;;;14.00
20092;BMP180;10205;49.678;6.560;2023-04-16T07:03:11;100367.00;;;14.00
20092;BMP180;10205;49.678;6.560;2023-04-16T07:05:39;100373.00;;;14.00
20092;BMP180;10205;49.678;6.560;2023-04-16T07:08:06;100377.00;;;14.00
20092;BMP180;10205;49.678;6.560;2023-04-16T07:10:34;100378.00;;;14.00
20092;BMP180;10205;49.678;6.560;2023-04-16T07:13:01;100380.00;;;14.00
20092;BMP180;10205;49.678;6.560;2023-04-16T07:15:28;100380.00;;;14.00
20092;BMP180;10205;49.678;6.560;2023-04-16T07:17:55;100388.00;;;14.00
20092;BMP180;10205;49.678;6.560;2023-04-16T07:20:23;100392.00;;;14.00
20092;BMP180;10205;49.678;6.560;2023-04-16T07:22:51;100390.00;;;14.00
20092;BMP180;10205;49.678;6.560;2023-04-16T07:25:19;100380.00;;;14.00
20092;BMP180;10205;49.678;6.560;2023-04-16T07:27:46;100392.00;;;14.00
20092;BMP180;10205;49.678;6.560;2023-04-16T07:30:13;100385.00;;;14.00
20092;BMP180;10205;49.678;6.560;2023-04-16T07:32:40;100384.00;;;14.00
20092;BMP180;10205;49.678;6.560;2023-04-16T07:35:08;100387.00;;;14.10
20092;BMP180;10205;49.678;6.560;2023-04-16T07:37:35;100390.00;;;14.10
20092;BMP180;10205;49.678;6.560;2023-04-16T07:40:07;100390.00;;;14.10
20092;BMP180;10205;49.678;6.560;2023-04-16T07:42:35;100394.00;;;14.10
20092;BMP180;10205;49.678;6.560;2023-04-16T07:45:02;100394.00;;;14.10
20092;BMP180;10205;49.678;6.560;2023-04-16T07:47:30;100384.00;;;14.10
20092;BMP180;10205;49.678;6.560;2023-04-16T07:49:57;100392.00;;;14.10
20092;BMP180;10205;49.678;6.560;2023-04-16T07:52:24;100383.00;;;14.10
20092;BMP180;10205;49.678;6.560;2023-04-16T07:54:51;100395.00;;;14.10
20092;BMP180;10205;49.678;6.560;2023-04-16T07:57:20;100391.00;;;14.10
20092;BMP180;10205;49.678;6.560;2023-04-16T07:59:47;100407.00;;;14.10
20092;BMP180;10205;49.678;6.560;2023-04-16T08:02:15;100399.00;;;14.10
20092;BMP180;10205;49.678;6.560;2023-04-16T08:04:42;100404.00;;;14.10
20092;BMP180;10205;49.678;6.560;2023-04-16T08:07:10;100404.00;;;14.10
20092;BMP180;10205;49.678;6.560;2023-04-16T08:09:46;100416.00;;;14.10
20092;BMP180;10205;49.678;6.560;2023-04-16T08:12:14;100410.00;;;14.20
20092;BMP180;10205;49.678;6.560;2023-04-16T08:14:44;100401.00;;;14.20
20092;BMP180;10205;49.678;6.560;2023-04-16T08:17:11;100410.00;;;14.20
20092;BMP180;10205;49.678;6.560;2023-04-16T08:19:38;100409.00;;;14.20
20092;BMP180;10205;49.678;6.560;2023-04-16T08:22:05;100409.00;;;14.20
20092;BMP180;10205;49.678;6.560;2023-04-16T08:24:33;100410.00;;;14.30
20092;BMP180;10205;49.678;6.560;2023-04-16T08:27:00;100410.00;;;14.30
20092;BMP180;10205;49.678;6.560;2023-04-16T08:29:27;100401.00;;;14.30
20092;BMP180;10205;49.678;6.560;2023-04-16T08:31:56;100413.00;;;14.30
20092;BMP180;10205;49.678;6.560;2023-04-16T08:34:23;100404.00;;;14.30
20092;BMP180;10205;49.678;6.560;2023-04-16T08:36:50;100409.00;;;14.30
20092;BMP180;10205;49.678;6.560;2023-04-16T08:39:18;100412.00;;;14.40
20092;BMP180;10205;49.678;6.560;2023-04-16T08:41:46;100408.00;;;14.40
20092;BMP180;10205;49.678;6.560;2023-04-16T08:44:20;100422.00;;;14.40
20092;BMP180;10205;49.678;6.560;2023-04-16T08:46:53;100420.00;;;14.50
20092;BMP180;10205;49.678;6.560;2023-04-16T08:49:25;100414.00;;;14.50
20092;BMP180;10205;49.678;6.560;2023-04-16T08:51:54;100424.00;;;14.50
20092;BMP180;10205;49.678;6.560;2023-04-16T08:54:37;100407.00;;;14.50
20092;BMP180;10205;49.678;6.560;2023-04-16T08:57:06;100410.00;;;14.60
20092;BMP180;10205;49.678;6.560;2023-04-16T08:59:37;100424.00;;;14.60
20092;BMP180;10205;49.678;6.560;2023-04-16T09:02:05;100424.00;;;14.70
20092;BMP180;10205;49.678;6.560;2023-04-16T09:04:36;100415.00;;;14.70
20092;BMP180;10205;49.678;6.560;2023-04-16T09:07:05;100418.00;;;14.70
20092;BMP180;10205;49.678;6.560;2023-04-16T09:09:36;100418.00;;;14.80
20092;BMP180;10205;49.678;6.560;2023-04-16T09:12:04;100414.00;;;14.80
20092;BMP180;10205;49.678;6.560;2023-04-16T09:14:32;100433.00;;;14.90
20092;BMP180;10205;49.678;6.560;2023-04-16T09:17:01;100421.00;;;14.90
20092;BMP180;10205;49.678;6.560;2023-04-16T09:19:29;100426.00;;;14.90
20092;BMP180;10205;49.678;6.560;2023-04-16T09:21:57;100415.00;;;15.00
20092;BMP180;10205;49.678;6.560;2023-04-16T09:24:25;100418.00;;;15.00
20092;BMP180;10205;49.678;6.560;2023-04-16T09:26:54;100417.00;;;15.10
20092;BMP180;10205;49.678;6.560;2023-04-16T09:29:36;100424.00;;;15.10
20092;BMP180;10205;49.678;6.560;2023-04-16T09:32:06;100409.00;;;15.20
20092;BMP180;10205;49.678;6.560;2023-04-16T09:34:34;100417.00;;;15.20
20092;BMP180;10205;49.678;6.560;2023-04-16T09:37:15;100416.00;;;15.30
20092;BMP180;10205;49.678;6.560;2023-04-16T09:39:43;100423.00;;;15.30
20092;BMP180;10205;49.678;6.560;2023-04-16T09:42:11;100424.00;;;15.30
20092;BMP180;10205;49.678;6.560;2023-04-16T09:44:38;100423.00;;;15.40
20092;BMP180;10205;49.678;6.560;2023-04-16T09:47:07;100421.00;;;15.50
20092;BMP180;10205;49.678;6.560;2023-04-16T09:49:40;100425.00;;;15.50
20092;BMP180;10205;49.678;6.560;2023-04-16T09:52:14;100417.00;;;15.60
20092;BMP180;10205;49.678;6.560;2023-04-16T09:54:49;100437.00;;;15.60
20092;BMP180;10205;49.678;6.560;2023-04-16T09:57:21;100431.00;;;15.60
20092;BMP180;10205;49.678;6.560;2023-04-16T09:59:51;100425.00;;;15.70
20092;BMP180;10205;49.678;6.560;2023-04-16T10:02:18;100438.00;;;15.70
20092;BMP180;10205;49.678;6.560;2023-04-16T10:04:47;100436.00;;;15.80
20092;BMP180;10205;49.678;6.560;2023-04-16T10:07:17;100439.00;;;15.80
20092;BMP180;10205;49.678;6.560;2023-04-16T10:09:46;100431.00;;;15.80
20092;BMP180;10205;49.678;6.560;2023-04-16T10:12:15;100430.00;;;15.90
20092;BMP180;10205;49.678;6.560;2023-04-16T10:14:42;100422.00;;;15.90
20092;BMP180;10205;49.678;6.560;2023-04-16T10:17:10;100426.00;;;15.90
20092;BMP180;10205;49.678;6.560;2023-04-16T10:19:37;100446.00;;;15.90
20092;BMP180;10205;49.678;6.560;2023-04-16T10:22:05;100428.00;;;16.00
20092;BMP180;10205;49.678;6.560;2023-04-16T10:24:37;100429.00;;;16.00
20092;BMP180;10205;49.678;6.560;2023-04-16T10:27:04;100437.00;;;16.00
20092;BMP180;10205;49.678;6.560;2023-04-16T10:29:32;100433.00;;;16.10
20092;BMP180;10205;49.678;6.560;2023-04-16T10:32:02;100418.00;;;16.10
20092;BMP180;10205;49.678;6.560;2023-04-16T10:34:30;100429.00;;;16.10
20092;BMP180;10205;49.678;6.560;2023-04-16T10:36:58;100428.00;;;16.20
20092;BMP180;10205;49.678;6.560;2023-04-16T10:39:27;100431.00;;;16.20
20092;BMP180;10205;49.678;6.560;2023-04-16T10:42:11;100416.00;;;16.30
20092;BMP180;10205;49.678;6.560;2023-04-16T10:44:39;100430.00;;;16.30
20092;BMP180;10205;49.678;6.560;2023-04-16T10:47:10;100411.00;;;16.30
20092;BMP180;10205;49.678;6.560;2023-04-16T10:49:39;100409.00;;;16.40
20092;BMP180;10205;49.678;6.560;2023-04-16T10:52:11;100416.00;;;16.40
20092;BMP180;10205;49.678;6.560;2023-04-16T10:54:39;100411.00;;;16.40
20092;BMP180;10205;49.678;6.560;2023-04-16T10:57:14;100417.00;;;16.50
20092;BMP180;10205;49.678;6.560;2023-04-16T10:59:43;100416.00;;;16.50
20092;BMP180;10205;49.678;6.560;2023-04-16T11:02:14;100415.00;;;16.50
20092;BMP180;10205;49.678;6.560;2023-04-16T11:04:43;100407.00;;;16.60
20092;BMP180;10205;49.678;6.560;2023-04-16T11:07:21;100411.00;;;16.60
20092;BMP180;10205;49.678;6.560;2023-04-16T11:09:54;100405.00;;;16.60
20092;BMP180;10205;49.678;6.560;2023-04-16T11:12:27;100416.00;;;16.60
20092;BMP180;10205;49.678;6.560;2023-04-16T11:15:00;100407.00;;;16.70
20092;BMP180;10205;49.678;6.560;2023-04-16T11:17:31;100422.00;;;16.70
20092;BMP180;10205;49.678;6.560;2023-04-16T11:20:01;100411.00;;;16.70
20092;BMP180;10205;49.678;6.560;2023-04-16T11:22:35;100397.00;;;16.80
20092;BMP180;10205;49.678;6.560;2023-04-16T11:25:02;100399.00;;;16.80
20092;BMP180;10205;49.678;6.560;2023-04-16T11:27:31;100408.00;;;16.90
20092;BMP180;10205;49.678;6.560;2023-04-16T11:30:00;100406.00;;;17.00
20092;BMP180;10205;49.678;6.560;2023-04-16T11:32:33;100412.00;;;17.00
20092;BMP180;10205;49.678;6.560;2023-04-16T11:35:13;100417.00;;;17.10
20092;BMP180;10205;49.678;6.560;2023-04-16T11:37:41;100408.00;;;17.10
20092;BMP180;10205;49.678;6.560;2023-04-16T11:40:10;100424.00;;;17.10
20092;BMP180;10205;49.678;6.560;2023-04-16T11:42:41;100397.00;;;17.20
20092;BMP180;10205;49.678;6.560;2023-04-16T11:45:10;100406.00;;;17.20
20092;BMP180;10205;49.678;6.560;2023-04-16T11:47:46;100410.00;;;17.30
20092;BMP180;10205;49.678;6.560;2023-04-16T11:50:21;100413.00;;;17.30
20092;BMP180;10205;49.678;6.560;2023-04-16T11:52:49;100412.00;;;17.40
20092;BMP180;10205;49.678;6.560;2023-04-16T11:55:17;100411.00;;;17.40
20092;BMP180;10205;49.678;6.560;2023-04-16T11:57:46;100413.00;;;17.50
20092;BMP180;10205;49.678;6.560;2023-04-16T12:00:14;100404.00;;;17.60
20092;BMP180;10205;49.678;6.560;2023-04-16T12:02:43;100411.00;;;17.60
20092;BMP180;10205;49.678;6.560;2023-04-16T12:05:29;100403.00;;;17.70
20092;BMP180;10205;49.678;6.560;2023-04-16T12:08:02;100401.00;;;17.70
20092;BMP180;10205;49.678;6.560;2023-04-16T12:10:32;100406.00;;;17.80
20092;BMP180;10205;49.678;6.560;2023-04-16T12:13:13;100411.00;;;17.90
20092;BMP180;10205;49.678;6.560;2023-04-16T12:15:47;100423.00;;;18.00
20092;BMP180;10205;49.678;6.560;2023-04-16T12:18:16;100414.00;;;18.00
20092;BMP180;10205;49.678;6.560;2023-04-16T12:20:45;100424.00;;;18.10
20092;BMP180;10205;49.678;6.560;2023-04-16T12:23:23;100413.00;;;18.10
20092;BMP180;10205;49.678;6.560;2023-04-16T12:25:51;100408.00;;;18.20
20092;BMP180;10205;49.678;6.560;2023-04-16T12:28:34;100408.00;;;18.20
20092;BMP180;10205;49.678;6.560;2023-04-16T12:31:04;100415.00;;;18.30
20092;BMP180;10205;49.678;6.560;2023-04-16T12:33:31;100416.00;;;18.30
20092;BMP180;10205;49.678;6.560;2023-04-16T12:35:58;100419.00;;;18.40
20092;BMP180;10205;49.678;6.560;2023-04-16T12:38:26;100423.00;;;18.40
20092;BMP180;10205;49.678;6.560;2023-04-16T12:40:53;100413.00;;;18.40
20092;BMP180;10205;49.678;6.560;2023-04-16T12:43:22;100412.00;;;18.50
20092;BMP180;10205;49.678;6.560;2023-04-16T12:45:51;100412.00;;;18.50
20092;BMP180;10205;49.678;6.560;2023-04-16T12:48:18;100419.00;;;18.50
20092;BMP180;10205;49.678;6.560;2023-04-16T12:50:45;100425.00;;;18.60
20092;BMP180;10205;49.678;6.560;2023-04-16T12:53:13;100414.00;;;18.60
20092;BMP180;10205;49.678;6.560;2023-04-16T12:55:40;100444.00;;;18.60
20092;BMP180;10205;49.678;6.560;2023-04-16T12:58:08;100415.00;;;18.70
20092;BMP180;10205;49.678;6.560;2023-04-16T13:00:35;100401.00;;;18.70
20092;BMP180;10205;49.678;6.560;2023-04-16T13:03:04;100424.00;;;18.70
20092;BMP180;10205;49.678;6.560;2023-04-16T13:05:31;100413.00;;;18.80
20092;BMP180;10205;49.678;6.560;2023-04-16T13:07:58;100417.00;;;18.80
20092;BMP180;10205;49.678;6.560;2023-04-16T13:10:25;100404.00;;;18.90
20092;BMP180;10205;49.678;6.560;2023-04-16T13:12:53;100416.00;;;18.90
20092;BMP180;10205;49.678;6.560;2023-04-16T13:15:24;100414.00;;;19.00
20092;BMP180;10205;49.678;6.560;2023-04-16T13:17:52;100416.00;;;19.00
20092;BMP180;10205;49.678;6.560;2023-04-16T13:20:23;100424.00;;;19.10
20092;BMP180;10205;49.678;6.560;2023-04-16T13:22:50;100426.00;;;19.10
20092;BMP180;10205;49.678;6.560;2023-04-16T13:25:18;100420.00;;;19.10
20092;BMP180;10205;49.678;6.560;2023-04-16T13:27:45;100419.00;;;19.20
20092;BMP180;10205;49.678;6.560;2023-04-16T13:30:13;100425.00;;;19.20
20092;BMP180;10205;49.678;6.560;2023-04-16T13:32:41;100424.00;;;19.20
20092;BMP180;10205;49.678;6.560;2023-04-16T13:35:09;100431.00;;;19.30
20092;BMP180;10205;49.678;6.560;2023-04-16T13:37:38;100422.00;;;19.30
20092;BMP180;10205;49.678;6.560;2023-04-16T13:40:07;100426.00;;;19.30
20092;BMP180;10205;49.678;6.560;2023-04-16T13:42:35;100423.00;;;19.40
20092;BMP180;10205;49.678;6.560;2023-04-16T13:45:02;100418.00;;;19.40
20092;BMP180;10205;49.678;6.560;2023-04-16T13:47:29;100425.00;;;19.40
20092;BMP180;10205;49.678;6.560;2023-04-16T13:49:57;100437.00;;;19.50
20092;BMP180;10205;49.678;6.560;2023-04-16T13:52:24;100435.00;;;19.50
20092;BMP180;10205;49.678;6.560;2023-04-16T13:54:52;100432.00;;;19.50
20092;BMP180;10205;49.678;6.560;2023-04-16T13:57:19;100426.00;;;19.50
20092;BMP180;10205;49.678;6.560;2023-04-16T13:59:47;100435.00;;;19.50
20092;BMP180;10205;49.678;6.560;2023-04-16T14:02:14;100432.00;;;19.50
20092;BMP180;10205;49.678;6.560;2023-04-16T14:04:41;100441.00;;;19.60